Terminal Aerodrome Forecast
Issued by NWS Lake Charles, LA

Home | Current Version | Previous Version | Text Only | Print | Product List | Glossary On
Versions: 1 2 3 4 5 6 7 8 9 10 11 12 13 14 15
000
FTUS44 KLCH 251724
TAFLFT
TAF
KLFT 251724Z 2518/2618 17006KT P6SM OVC100
     FM260000 VRB05KT P6SM SKC
     FM260800 VRB03KT 2SM BR SKC
      TEMPO 2610/2613 1/2SM FG=

USA.gov is the U.S. government's official web portal to all federal, state and local government web resources and services.